地図

経路データ

SID SEASON NUMBER BASIN SUBBASIN NAME ISO_TIME NATURE LAT LON WMO_WIND WMO_PRES WMO_AGENCY TRACK_TYPE DIST2LAND LANDFALL IFLAG USA_AGENCY USA_ATCF_ID USA_LAT USA_LON USA_RECORD USA_STATUS USA_WIND USA_PRES USA_SSHS USA_R34_NE USA_R34_SE USA_R34_SW USA_R34_NW USA_R50_NE USA_R50_SE USA_R50_SW USA_R50_NW USA_R64_NE USA_R64_SE USA_R64_SW USA_R64_NW USA_POCI USA_ROCI USA_RMW USA_EYE TOKYO_LAT TOKYO_LON TOKYO_GRADE TOKYO_WIND TOKYO_PRES TOKYO_R50_DIR TOKYO_R50_LONG TOKYO_R50_SHORT TOKYO_R30_DIR TOKYO_R30_LONG TOKYO_R30_SHORT TOKYO_LAND CMA_LAT CMA_LON CMA_CAT CMA_WIND CMA_PRES HKO_LAT HKO_LON HKO_CAT HKO_WIND HKO_PRES NEWDELHI_LAT NEWDELHI_LON NEWDELHI_GRADE NEWDELHI_WIND NEWDELHI_PRES NEWDELHI_CI NEWDELHI_DP NEWDELHI_POCI REUNION_LAT REUNION_LON REUNION_TYPE REUNION_WIND REUNION_PRES REUNION_TNUM REUNION_CI REUNION_RMW REUNION_R34_NE REUNION_R34_SE REUNION_R34_SW REUNION_R34_NW REUNION_R50_NE REUNION_R50_SE REUNION_R50_SW REUNION_R50_NW REUNION_R64_NE REUNION_R64_SE REUNION_R64_SW REUNION_R64_NW BOM_LAT BOM_LON BOM_TYPE BOM_WIND BOM_PRES BOM_TNUM BOM_CI BOM_RMW BOM_R34_NE BOM_R34_SE BOM_R34_SW BOM_R34_NW BOM_R50_NE BOM_R50_SE BOM_R50_SW BOM_R50_NW BOM_R64_NE BOM_R64_SE BOM_R64_SW BOM_R64_NW BOM_ROCI BOM_POCI BOM_EYE BOM_POS_METHOD BOM_PRES_METHOD NADI_LAT NADI_LON NADI_CAT NADI_WIND NADI_PRES WELLINGTON_LAT WELLINGTON_LON WELLINGTON_WIND WELLINGTON_PRES DS824_LAT DS824_LON DS824_STAGE DS824_WIND DS824_PRES TD9636_LAT TD9636_LON TD9636_STAGE TD9636_WIND TD9636_PRES TD9635_LAT TD9635_LON TD9635_WIND TD9635_PRES TD9635_ROCI NEUMANN_LAT NEUMANN_LON NEUMANN_CLASS NEUMANN_WIND NEUMANN_PRES MLC_LAT MLC_LON MLC_CLASS MLC_WIND MLC_PRES USA_GUST BOM_GUST BOM_GUST_PER REUNION_GUST REUNION_GUST_PER USA_SEAHGT USA_SEARAD_NE USA_SEARAD_SE USA_SEARAD_SW USA_SEARAD_NW STORM_SPEED STORM_DIR
1969290N18275 1969 104 NA CS LAURIE 1969-10-17 00:00:00 TS 18.0000 -85.3000 25 1007 hurdat_atl main 235 235 O_____________ hurdat_atl AL261969 18.0000 -85.3000 TD 25 1007 -1 3 348
1969290N18275 1969 104 NA CS LAURIE 1969-10-17 03:00:00 TS 18.1500 -85.3500 main 254 241 P_____________ AL261969 18.1500 -85.3500 TD 25 -1 3 343
1969290N18275 1969 104 NA CS LAURIE 1969-10-17 06:00:00 TS 18.3000 -85.4000 25 hurdat_atl main 241 238 O_____________ hurdat_atl AL261969 18.3000 -85.4000 TD 25 -1 3 343
1969290N18275 1969 104 NA CS LAURIE 1969-10-17 09:00:00 TS 18.4500 -85.4500 main 224 220 P_____________ AL261969 18.4500 -85.4500 TD 25 -1 3 343
1969290N18275 1969 104 NA CS LAURIE 1969-10-17 12:00:00 TS 18.6000 -85.5000 25 hurdat_atl main 220 217 O_____________ hurdat_atl AL261969 18.6000 -85.5000 TD 25 -1 3 345
1969290N18275 1969 104 NA CS LAURIE 1969-10-17 15:00:00 TS 18.7575 -85.5425 main 214 200 P_____________ AL261969 18.7575 -85.5425 TD 27 -1 3 343
1969290N18275 1969 104 NA CS LAURIE 1969-10-17 18:00:00 TS 18.9000 -85.6000 30 1005 hurdat_atl main 200 187 O_____________ hurdat_atl AL261969 18.9000 -85.6000 TD 30 1005 -1 3 333
1969290N18275 1969 104 NA CS LAURIE 1969-10-17 21:00:00 TS 19.0075 -85.6775 main 187 173 P_____________ AL261969 19.0075 -85.6775 TD 30 -1 3 316
1969290N18275 1969 104 NA CS LAURIE 1969-10-18 00:00:00 TS 19.1000 -85.8000 30 hurdat_atl main 173 150 O_____________ hurdat_atl AL261969 19.1000 -85.8000 TD 30 -1 3 303
1969290N18275 1969 104 NA CS LAURIE 1969-10-18 03:00:00 TS 19.1925 -85.9775 main 150 127 P_____________ AL261969 19.1925 -85.9775 TD 30 -1 4 298
1969290N18275 1969 104 NA CS LAURIE 1969-10-18 06:00:00 TS 19.3000 -86.2000 30 hurdat_atl main 127 105 O_____________ hurdat_atl AL261969 19.3000 -86.2000 TD 30 -1 5 300
1969290N18275 1969 104 NA CS LAURIE 1969-10-18 09:00:00 TS 19.4349 -86.4201 main 105 74 P_____________ AL261969 19.4349 -86.4201 TD 30 -1 6 303
1969290N18275 1969 104 NA CS LAURIE 1969-10-18 12:00:00 TS 19.6000 -86.7000 30 1006 hurdat_atl main 74 41 O_____________ hurdat_atl AL261969 19.6000 -86.7000 TD 30 1006 -1 7 299
1969290N18275 1969 104 NA CS LAURIE 1969-10-18 15:00:00 TS 19.7775 -87.0776 main 41 0 P_____________ AL261969 19.7775 -87.0776 TD 30 1005 -1 9 298
1969290N18275 1969 104 NA CS LAURIE 1969-10-18 18:00:00 TS 20.0000 -87.5000 30 hurdat_atl main 0 0 I_____________ hurdat_atl AL261969 20.0000 -87.5000 TD 30 1005 -1 9 303
1969290N18275 1969 104 NA NA LAURIE 1969-10-18 21:00:00 TS 20.2850 -87.9075 main 0 0 P_____________ AL261969 20.2850 -87.9075 TD 30 1005 -1 10 309
1969290N18275 1969 104 NA NA LAURIE 1969-10-19 00:00:00 TS 20.6000 -88.3000 30 1005 hurdat_atl main 0 0 O_____________ hurdat_atl AL261969 20.6000 -88.3000 TD 30 1005 -1 9 311
1969290N18275 1969 104 NA NA LAURIE 1969-10-19 03:00:00 TS 20.8999 -88.6651 main 0 0 P_____________ AL261969 20.8999 -88.6651 TD 30 1003 -1 9 313
1969290N18275 1969 104 NA NA LAURIE 1969-10-19 06:00:00 TS 21.2000 -89.0000 30 hurdat_atl main 0 0 I_____________ hurdat_atl AL261969 21.2000 -89.0000 TD 30 1002 -1 9 315
1969290N18275 1969 104 NA GM LAURIE 1969-10-19 09:00:00 TS 21.4999 -89.3077 main 22 22 P_____________ AL261969 21.4999 -89.3077 TD 35 1001 0 8 317
1969290N18275 1969 104 NA GM LAURIE 1969-10-19 12:00:00 TS 21.8000 -89.6000 40 1000 hurdat_atl main 63 63 O_____________ hurdat_atl AL261969 21.8000 -89.6000 TS 40 1000 0 8 316
1969290N18275 1969 104 NA GM LAURIE 1969-10-19 15:00:00 TS 22.0850 -89.9077 main 100 100 P_____________ AL261969 22.0850 -89.9077 TS 40 1000 0 8 317
1969290N18275 1969 104 NA GM LAURIE 1969-10-19 18:00:00 TS 22.4000 -90.2000 40 hurdat_atl main 137 137 I_____________ hurdat_atl AL261969 22.4000 -90.2000 TS 40 1000 0 9 323
1969290N18275 1969 104 NA GM LAURIE 1969-10-19 21:00:00 TS 22.8000 -90.4799 main 189 189 P_____________ AL261969 22.8000 -90.4799 TS 40 1000 0 9 330
1969290N18275 1969 104 NA GM LAURIE 1969-10-20 00:00:00 TS 23.2000 -90.7000 40 1000 hurdat_atl main 238 238 O_____________ hurdat_atl AL261969 23.2000 -90.7000 TS 40 1000 0 8 336
1969290N18275 1969 104 NA GM LAURIE 1969-10-20 03:00:00 TS 23.5224 -90.8302 main 273 273 P_____________ AL261969 23.5224 -90.8302 TS 42 999 0 6 343
1969290N18275 1969 104 NA GM LAURIE 1969-10-20 06:00:00 TS 23.8000 -90.9000 45 998 hurdat_atl main 308 308 O_____________ hurdat_atl AL261969 23.8000 -90.9000 TS 45 998 0 5 347
1969290N18275 1969 104 NA GM LAURIE 1969-10-20 09:00:00 TS 24.0425 -90.9576 main 332 332 P_____________ AL261969 24.0425 -90.9576 TS 50 995 0 5 350
1969290N18275 1969 104 NA GM LAURIE 1969-10-20 12:00:00 TS 24.3000 -91.0000 55 993 hurdat_atl main 364 364 O_____________ hurdat_atl AL261969 24.3000 -91.0000 TS 55 993 0 6 351
1969290N18275 1969 104 NA GM LAURIE 1969-10-20 15:00:00 TS 24.6350 -91.0649 main 399 399 P_____________ AL261969 24.6350 -91.0649 TS 60 990 0 7 353
1969290N18275 1969 104 NA GM LAURIE 1969-10-20 18:00:00 TS 25.0000 -91.1000 65 987 hurdat_atl main 442 424 O_____________ hurdat_atl AL261969 25.0000 -91.1000 HU 65 987 1 7 0
1969290N18275 1969 104 NA GM LAURIE 1969-10-20 21:00:00 TS 25.3574 -91.0949 main 413 379 P_____________ AL261969 25.3574 -91.0949 HU 72 980 1 7 7
1969290N18275 1969 104 NA GM LAURIE 1969-10-21 00:00:00 TS 25.7000 -91.0000 80 973 hurdat_atl main 379 346 O_____________ hurdat_atl AL261969 25.7000 -91.0000 HU 80 973 1 7 22
1969290N18275 1969 104 NA GM LAURIE 1969-10-21 03:00:00 TS 26.0375 -90.7952 main 346 312 P_____________ AL261969 26.0375 -90.7952 HU 80 973 1 8 37
1969290N18275 1969 104 NA GM LAURIE 1969-10-21 06:00:00 TS 26.3000 -90.5000 80 974 hurdat_atl main 312 301 O_____________ hurdat_atl AL261969 26.3000 -90.5000 HU 80 974 1 7 54
1969290N18275 1969 104 NA GM LAURIE 1969-10-21 09:00:00 TS 26.4450 -90.1724 main 301 287 P_____________ AL261969 26.4450 -90.1724 HU 80 973 1 7 72
1969290N18275 1969 104 NA GM LAURIE 1969-10-21 12:00:00 TS 26.5000 -89.8000 80 973 hurdat_atl main 287 280 O_____________ hurdat_atl AL261969 26.5000 -89.8000 HU 80 973 1 7 83
1969290N18275 1969 104 NA GM LAURIE 1969-10-21 15:00:00 TS 26.5299 -89.4075 main 280 279 P_____________ AL261969 26.5299 -89.4075 HU 77 975 1 7 90
1969290N18275 1969 104 NA GM LAURIE 1969-10-21 18:00:00 TS 26.5000 -89.0000 75 977 hurdat_atl main 279 279 O_____________ hurdat_atl AL261969 26.5000 -89.0000 HU 75 977 1 7 98
1969290N18275 1969 104 NA GM LAURIE 1969-10-21 21:00:00 TS 26.4299 -88.6001 main 294 294 P_____________ AL261969 26.4299 -88.6001 HU 75 978 1 7 106
1969290N18275 1969 104 NA GM LAURIE 1969-10-22 00:00:00 TS 26.3000 -88.2000 75 980 hurdat_atl main 314 314 O_____________ hurdat_atl AL261969 26.3000 -88.2000 HU 75 980 1 8 113
1969290N18275 1969 104 NA GM LAURIE 1969-10-22 03:00:00 TS 26.1150 -87.7774 main 348 348 P_____________ AL261969 26.1150 -87.7774 HU 72 981 1 8 119
1969290N18275 1969 104 NA GM LAURIE 1969-10-22 06:00:00 TS 25.9000 -87.4000 70 983 hurdat_atl main 384 384 O_____________ hurdat_atl AL261969 25.9000 -87.4000 HU 70 983 1 7 125
1969290N18275 1969 104 NA GM LAURIE 1969-10-22 09:00:00 TS 25.6999 -87.1202 main 417 417 P_____________ AL261969 25.6999 -87.1202 HU 67 985 1 6 132
1969290N18275 1969 104 NA GM LAURIE 1969-10-22 12:00:00 TS 25.5000 -86.9000 65 987 hurdat_atl main 429 399 O_____________ hurdat_atl AL261969 25.5000 -86.9000 HU 65 987 1 6 135
1969290N18275 1969 104 NA GM LAURIE 1969-10-22 15:00:00 TS 25.3000 -86.6851 main 399 369 P_____________ AL261969 25.3000 -86.6851 HU 65 987 1 5 138
1969290N18275 1969 104 NA GM LAURIE 1969-10-22 18:00:00 TS 25.1000 -86.5000 65 987 hurdat_atl main 369 339 O_____________ hurdat_atl AL261969 25.1000 -86.5000 HU 65 987 1 5 142
1969290N18275 1969 104 NA GM LAURIE 1969-10-22 21:00:00 TS 24.8925 -86.3275 main 339 316 P_____________ AL261969 24.8925 -86.3275 HU 60 989 0 5 146
1969290N18275 1969 104 NA GM LAURIE 1969-10-23 00:00:00 TS 24.7000 -86.2000 55 992 hurdat_atl main 316 301 O_____________ hurdat_atl AL261969 24.7000 -86.2000 TS 55 992 0 4 152
1969290N18275 1969 104 NA GM LAURIE 1969-10-23 03:00:00 TS 24.5425 -86.1200 main 293 286 P_____________ AL261969 24.5425 -86.1200 TS 52 994 0 3 164
1969290N18275 1969 104 NA GM LAURIE 1969-10-23 06:00:00 TS 24.4000 -86.1000 50 996 hurdat_atl main 286 278 O_____________ hurdat_atl AL261969 24.4000 -86.1000 TS 50 996 0 3 176
1969290N18275 1969 104 NA GM LAURIE 1969-10-23 09:00:00 TS 24.2499 -86.1049 main 271 271 P_____________ AL261969 24.2499 -86.1049 TS 50 997 0 3 196
1969290N18275 1969 104 NA GM LAURIE 1969-10-23 12:00:00 TS 24.1000 -86.2000 50 998 hurdat_atl main 271 269 O_____________ hurdat_atl AL261969 24.1000 -86.2000 TS 50 998 0 4 222
1969290N18275 1969 104 NA GM LAURIE 1969-10-23 15:00:00 TS 23.9425 -86.4126 main 265 258 P_____________ AL261969 23.9425 -86.4126 TS 47 999 0 5 237
1969290N18275 1969 104 NA GM LAURIE 1969-10-23 18:00:00 TS 23.8000 -86.7000 45 1000 hurdat_atl main 258 245 O_____________ hurdat_atl AL261969 23.8000 -86.7000 TS 45 1000 0 6 244
1969290N18275 1969 104 NA GM LAURIE 1969-10-23 21:00:00 TS 23.6850 -86.9925 main 245 234 P_____________ AL261969 23.6850 -86.9925 TS 45 0 6 250
1969290N18275 1969 104 NA GM LAURIE 1969-10-24 00:00:00 TS 23.6000 -87.3000 45 hurdat_atl main 235 223 O_____________ hurdat_atl AL261969 23.6000 -87.3000 TS 45 0 6 255
1969290N18275 1969 104 NA GM LAURIE 1969-10-24 03:00:00 TS 23.5424 -87.5924 main 223 223 P_____________ AL261969 23.5424 -87.5924 TS 42 0 6 260
1969290N18275 1969 104 NA GM LAURIE 1969-10-24 06:00:00 TS 23.5000 -87.9000 40 hurdat_atl main 223 223 O_____________ hurdat_atl AL261969 23.5000 -87.9000 TS 40 0 6 261
1969290N18275 1969 104 NA GM LAURIE 1969-10-24 09:00:00 TS 23.4499 -88.2350 main 212 212 P_____________ AL261969 23.4499 -88.2350 TS 40 0 7 261
1969290N18275 1969 104 NA GM LAURIE 1969-10-24 12:00:00 TS 23.4000 -88.6000 40 1001 hurdat_atl main 212 212 O_____________ hurdat_atl AL261969 23.4000 -88.6000 TS 40 1001 0 7 262
1969290N18275 1969 104 NA GM LAURIE 1969-10-24 15:00:00 TS 23.3498 -88.9775 main 205 205 P_____________ AL261969 23.3498 -88.9775 TS 37 1002 0 7 262
1969290N18275 1969 104 NA GM LAURIE 1969-10-24 18:00:00 TS 23.3000 -89.4000 35 1004 hurdat_atl main 217 217 O_____________ hurdat_atl AL261969 23.3000 -89.4000 TS 35 1004 0 9 264
1969290N18275 1969 104 NA GM LAURIE 1969-10-24 21:00:00 TS 23.2651 -89.8999 main 231 224 P_____________ AL261969 23.2651 -89.8999 TS 35 0 9 264
1969290N18275 1969 104 NA GM LAURIE 1969-10-25 00:00:00 TS 23.2000 -90.4000 35 hurdat_atl main 229 224 O_____________ hurdat_atl AL261969 23.2000 -90.4000 TS 35 0 9 257
1969290N18275 1969 104 NA GM LAURIE 1969-10-25 03:00:00 TS 23.0723 -90.8225 main 229 217 P_____________ AL261969 23.0723 -90.8225 TS 35 0 8 248
1969290N18275 1969 104 NA GM LAURIE 1969-10-25 06:00:00 TS 22.9000 -91.2000 35 hurdat_atl main 221 216 O_____________ hurdat_atl AL261969 22.9000 -91.2000 TS 35 0 8 242
1969290N18275 1969 104 NA GM LAURIE 1969-10-25 09:00:00 TS 22.7149 -91.5649 main 223 220 P_____________ AL261969 22.7149 -91.5649 TS 35 0 8 238
1969290N18275 1969 104 NA GM LAURIE 1969-10-25 12:00:00 TS 22.5000 -91.9000 35 hurdat_atl main 227 227 O_____________ hurdat_atl AL261969 22.5000 -91.9000 TS 35 0 8 234
1969290N18275 1969 104 NA GM LAURIE 1969-10-25 15:00:00 TS 22.2650 -92.2300 main 237 237 P_____________ AL261969 22.2650 -92.2300 TS 35 0 7 228
1969290N18275 1969 104 NA GM LAURIE 1969-10-25 18:00:00 TS 22.0000 -92.5000 35 1003 hurdat_atl main 248 244 O_____________ hurdat_atl AL261969 22.0000 -92.5000 TS 35 1003 0 7 217
1969290N18275 1969 104 NA GM LAURIE 1969-10-25 21:00:00 TS 21.7074 -92.6799 main 257 254 P_____________ AL261969 21.7074 -92.6799 TS 32 -1 7 205
1969290N18275 1969 104 NA GM LAURIE 1969-10-26 00:00:00 TS 21.4000 -92.8000 30 hurdat_atl main 257 255 O_____________ hurdat_atl AL261969 21.4000 -92.8000 TD 30 -1 6 200
1969290N18275 1969 104 NA GM LAURIE 1969-10-26 03:00:00 TS 21.1075 -92.9150 main 258 248 P_____________ AL261969 21.1075 -92.9150 TD 30 -1 6 197
1969290N18275 1969 104 NA GM LAURIE 1969-10-26 06:00:00 TS 20.8000 -93.0000 30 hurdat_atl main 248 216 O_____________ hurdat_atl AL261969 20.8000 -93.0000 TD 30 -1 7 192
1969290N18275 1969 104 NA GM LAURIE 1969-10-26 09:00:00 TS 20.4575 -93.0650 main 216 172 P_____________ AL261969 20.4575 -93.0650 TD 30 -1 7 188
1969290N18275 1969 104 NA GM LAURIE 1969-10-26 12:00:00 TS 20.1000 -93.1000 30 hurdat_atl main 172 140 O_____________ hurdat_atl AL261969 20.1000 -93.1000 TD 30 -1 7 184
1969290N18275 1969 104 NA GM LAURIE 1969-10-26 15:00:00 TS 19.7500 -93.1075 main 140 98 P_____________ AL261969 19.7500 -93.1075 TD 30 -1 7 0
1969290N18275 1969 104 NA GM LAURIE 1969-10-26 18:00:00 TS 19.4000 -93.1000 30 1006 hurdat_atl main 98 70 O_____________ hurdat_atl AL261969 19.4000 -93.1000 TD 30 1006 -1 7 0
1969290N18275 1969 104 NA GM LAURIE 1969-10-26 21:00:00 TS 19.0500 -93.1000 main 70 35 P_____________ AL261969 19.0500 -93.1000 TD 27 -1 7 0
1969290N18275 1969 104 NA GM LAURIE 1969-10-27 00:00:00 TS 18.7000 -93.1000 25 hurdat_atl main 35 10 O_____________ hurdat_atl AL261969 18.7000 -93.1000 TD 25 -1 7 0
1969290N18275 1969 104 NA NA LAURIE 1969-10-27 03:00:00 TS 18.3500 -93.1000 main 10 0 P_____________ AL261969 18.3500 -93.1000 TD 22 -1 7 0
1969290N18275 1969 104 NA NA LAURIE 1969-10-27 06:00:00 TS 18.0000 -93.1000 20 hurdat_atl main 0 O_____________ hurdat_atl AL261969 18.0000 -93.1000 TD 20 -1 7 0

IBTrACS Databaseについて

本データベースは、米国NOAAが公開する1842年以降の世界の熱帯低気圧のベストトラックデータアーカイブInternational Best Track Archive for Climate Stewardship (IBTrACS)を、ウェブで閲覧しやすい形式に変換したものです。

最終更新日:2022-05-26